CheckWX is a tool to help pilots better visualize weather data.  It is not intended as a substitute for an official pre-flight weather briefing.

14:13:34 UTC

KHDC METAR
Hammond Northshore Regional Airport
Hammond, Louisiana, USA
Current

19 mins ago

KHDC 071355Z AUTO 02005KT 10SM OVC011 13/12 A3022 RMK AO2
Observed
Dec-7 @ 13:55 UTC
Wind
  • 020° at 5 KTS
Visibility
10 SM
Flight Rules
MVFR
Cloud Levels
  • Overcast at 1,100' AGL
Temperature
13°C / 55°F
Dewpoint
12°C / 54°F
Humidity
94%
Altimeter
30.22" Hg
Pressure
1023.42 hPa
Previous

39 mins ago

KHDC 071335Z AUTO 02004KT 10SM OVC011 13/12 A3021 RMK AO2
Observed
Dec-7 @ 13:35 UTC
Wind
  • 020° at 4 KTS
Visibility
10 SM
Flight Rules
MVFR
Cloud Levels
  • Overcast at 1,100' AGL
Temperature
13°C / 55°F
Dewpoint
12°C / 54°F
Humidity
94%
Altimeter
30.21" Hg
Pressure
1023.02 hPa
Previous

59 mins ago

KHDC 071315Z AUTO 01005KT 10SM OVC011 13/12 A3021 RMK AO2
Observed
Dec-7 @ 13:15 UTC
Wind
  • 010° at 5 KTS
Visibility
10 SM
Flight Rules
MVFR
Cloud Levels
  • Overcast at 1,100' AGL
Temperature
13°C / 55°F
Dewpoint
12°C / 54°F
Humidity
94%
Altimeter
30.21" Hg
Pressure
1023.02 hPa